Aviation Digital Data Service (ADDS)

Output produced by METARs form (2048 UTC 21 September 2021)
found at http://www.aviationweather.gov/metar/data/
 
KTPA 211740Z 2118/2224 26006KT P6SM VCSH SCT035 SCT200 
     FM212000 29007KT P6SM VCTS SCT030CB BKN050 
     FM220000 08005KT P6SM VCSH SCT030 BKN050 
     FM220300 VRB03KT P6SM FEW020 SCT120 BKN250 
     FM221200 VRB03KT P6SM VCSH SCT020 SCT120 BKN250 
     FM221500 22005KT P6SM VCTS SCT025CB SCT120 BKN250 
     FM221800 25007KT P6SM VCTS SCT030CB BKN050